« Back
NWS Peachtree City, Ga » Text Product » MCN Terminal Aerodrome Forecast


Printer-friendly Version
Current Version              Previous Versions:   1  2  3  4  5  6  7  8  9  

Terminal Aerodrome Forecast

948
FTUS42 KFFC 280528
TAFMCN
TAF
KMCN 280528Z 2806/2906 04003KT P6SM BKN200
     FM281500 08009KT P6SM SCT050 BKN120
     FM281800 09010KT P6SM SCT025 BKN050
     FM282200 08006KT P6SM VCSH SCT025 BKN045
     FM290000 05008KT 5SM SHRA SCT012 BKN025
     FM290500 06005KT 5SM SHRA OVC012=



USA.gov is the U.S. government's official web portal to all federal, state and local government web resources and services.